createdAt,value
2023-05-20T00:02:53.237Z,8.20
2023-05-20T00:08:55.977Z,5.80
2023-05-20T00:14:58.402Z,10.55
2023-05-20T00:21:00.806Z,6.18
2023-05-20T00:27:03.062Z,7.18
2023-05-20T00:33:05.518Z,6.28
2023-05-20T00:39:08.156Z,6.13
2023-05-20T00:45:11.265Z,6.22
2023-05-20T00:51:14.516Z,5.60
2023-05-20T00:57:17.542Z,11.10
2023-05-20T01:03:20.020Z,6.35
2023-05-20T01:09:22.454Z,6.18
2023-05-20T01:15:27.528Z,7.95
2023-05-20T01:21:34.707Z,6.22
2023-05-20T01:27:37.133Z,4.97
2023-05-20T01:33:42.101Z,5.40
2023-05-20T01:39:45.529Z,7.57
2023-05-20T01:45:47.951Z,7.47
2023-05-20T01:51:50.443Z,7.18
2023-05-20T01:57:52.948Z,6.47
2023-05-20T02:03:56.111Z,6.10
2023-05-20T02:09:59.084Z,6.03
2023-05-20T02:16:03.837Z,5.63
2023-05-20T02:22:07.488Z,6.13
2023-05-20T02:28:10.980Z,7.10
2023-05-20T02:34:13.498Z,7.45
2023-05-20T02:40:16.060Z,9.63
2023-05-20T02:46:19.768Z,7.15
2023-05-20T02:52:22.155Z,9.00
2023-05-20T02:58:26.446Z,6.68
2023-05-20T03:04:29.212Z,7.88
2023-05-20T03:10:31.775Z,10.57
2023-05-20T03:16:36.005Z,8.38
2023-05-20T03:22:38.522Z,10.52
2023-05-20T03:28:40.953Z,10.63
2023-05-20T03:34:44.162Z,8.85
2023-05-20T03:40:46.819Z,11.82
2023-05-20T03:46:49.270Z,13.88
2023-05-20T03:52:51.914Z,12.38
2023-05-20T03:58:57.177Z,24.30
2023-05-20T04:05:01.523Z,12.70
2023-05-20T04:11:04.047Z,14.98
2023-05-20T04:17:06.661Z,11.88
2023-05-20T04:23:09.222Z,9.13
2023-05-20T04:29:12.030Z,10.07
2023-05-20T04:35:14.644Z,9.80
2023-05-20T04:41:20.223Z,11.48
2023-05-20T04:47:22.699Z,13.10
2023-05-20T04:53:25.101Z,13.23
2023-05-20T04:59:29.369Z,10.52
2023-05-20T05:05:31.950Z,12.98
2023-05-20T05:11:34.491Z,11.13
2023-05-20T05:17:37.096Z,10.30
2023-05-20T05:23:40.166Z,12.20
2023-05-20T05:29:42.780Z,10.25
2023-05-20T05:35:45.422Z,10.18
2023-05-20T05:41:48.096Z,8.70
2023-05-20T05:47:50.764Z,9.80
2023-05-20T05:53:53.442Z,10.95
2023-05-20T05:59:56.076Z,9.70
2023-05-20T06:05:59.319Z,13.43
2023-05-20T06:12:02.578Z,12.13
2023-05-20T06:18:17.355Z,14.68
2023-05-20T06:24:26.638Z,13.48
2023-05-20T06:30:29.283Z,10.98
2023-05-20T06:36:33.667Z,11.38
2023-05-20T06:42:36.366Z,11.18
2023-05-20T06:48:39.953Z,12.13
2023-05-20T06:54:43.320Z,10.43
2023-05-20T07:00:47.718Z,11.68
2023-05-20T07:06:51.368Z,12.27
2023-05-20T07:12:55.568Z,11.48
2023-05-20T07:18:58.328Z,9.93
2023-05-20T07:25:01.391Z,8.60
2023-05-20T07:31:03.864Z,8.48
2023-05-20T07:37:10.126Z,9.27
2023-05-20T07:43:13.104Z,7.05
2023-05-20T07:49:15.782Z,7.80
2023-05-20T07:55:18.806Z,8.05
2023-05-20T08:01:22.131Z,8.02
2023-05-20T08:07:25.156Z,9.00
2023-05-20T08:13:29.632Z,6.88
2023-05-20T08:19:32.160Z,7.90
2023-05-20T08:25:35.077Z,8.93
2023-05-20T08:31:38.552Z,6.25
2023-05-20T08:37:42.883Z,7.82
2023-05-20T08:43:45.992Z,8.77
2023-05-20T08:49:49.988Z,5.00
2023-05-20T08:56:07.335Z,4.93
2023-05-20T09:02:12.436Z,4.30
2023-05-20T09:08:16.260Z,5.07
2023-05-20T09:14:18.781Z,6.28
2023-05-20T09:20:23.243Z,5.75
2023-05-20T09:26:30.196Z,5.18
2023-05-20T09:32:32.897Z,6.20
2023-05-20T09:38:39.439Z,6.60
2023-05-20T09:44:45.153Z,6.32
2023-05-20T09:50:49.932Z,7.65
2023-05-20T09:56:54.088Z,8.57
2023-05-20T10:02:57.514Z,9.45
2023-05-20T10:09:15.452Z,8.20
2023-05-20T10:15:32.752Z,10.05
2023-05-20T10:21:36.158Z,9.53
2023-05-20T10:27:48.830Z,10.55
2023-05-20T10:33:54.639Z,12.18
2023-05-20T10:40:09.281Z,8.77
2023-05-20T10:46:31.830Z,12.00
2023-05-20T10:52:38.374Z,9.75
2023-05-20T10:58:40.935Z,12.68
2023-05-20T11:04:44.327Z,13.65
2023-05-20T11:10:46.724Z,11.75
2023-05-20T11:16:53.588Z,12.40
2023-05-20T11:22:58.758Z,7.97
2023-05-20T11:29:07.027Z,9.30
2023-05-20T11:35:27.770Z,11.40
2023-05-20T11:48:22.393Z,12.35
2023-05-20T11:54:25.245Z,12.20
2023-05-20T12:00:31.273Z,11.60
2023-05-20T12:06:38.838Z,11.23
2023-05-20T12:12:51.799Z,13.70
2023-05-20T12:18:54.148Z,12.95
2023-05-20T12:24:56.668Z,12.85
2023-05-20T12:31:01.441Z,14.38
2023-05-20T12:37:04.402Z,16.48
2023-05-20T12:43:07.069Z,17.17
2023-05-20T12:49:09.446Z,11.60
2023-05-20T12:55:14.030Z,12.93
2023-05-20T13:01:16.597Z,13.63
2023-05-20T13:07:19.024Z,14.48
2023-05-20T13:13:21.863Z,14.18
2023-05-20T13:19:25.136Z,14.10
2023-05-20T13:25:28.050Z,18.67
2023-05-20T13:31:30.628Z,17.33
2023-05-20T13:37:33.103Z,17.67
2023-05-20T13:43:35.414Z,19.25
2023-05-20T13:49:37.687Z,15.60
2023-05-20T13:55:40.635Z,17.10
2023-05-20T14:01:46.565Z,28.45
2023-05-20T14:07:49.240Z,22.63
2023-05-20T14:13:51.581Z,17.02
2023-05-20T14:19:53.987Z,20.30
2023-05-20T14:25:56.360Z,20.38
2023-05-20T14:31:58.766Z,18.45
2023-05-20T14:38:01.154Z,20.88
2023-05-20T14:44:03.650Z,23.52
2023-05-20T14:50:11.405Z,20.35
2023-05-20T14:56:13.745Z,21.50
2023-05-20T15:02:17.152Z,24.90
2023-05-20T15:08:20.038Z,18.67
2023-05-20T15:14:27.926Z,18.00
2023-05-20T15:20:32.789Z,19.40
2023-05-20T15:26:35.408Z,19.88
2023-05-20T15:32:38.081Z,21.30
2023-05-20T15:38:40.699Z,18.52
2023-05-20T15:44:43.302Z,17.25
2023-05-20T15:50:48.406Z,22.13
2023-05-20T15:56:56.425Z,19.85
2023-05-20T16:02:59.334Z,19.13
2023-05-20T16:09:02.588Z,19.85
2023-05-20T16:15:06.710Z,20.38
2023-05-20T16:21:09.341Z,15.40
2023-05-20T16:27:12.809Z,13.80
2023-05-20T16:33:17.777Z,14.55
2023-05-20T16:39:20.907Z,14.52
2023-05-20T16:45:23.650Z,17.40
2023-05-20T16:51:28.975Z,14.30
2023-05-20T16:57:32.657Z,13.98
2023-05-20T17:03:36.024Z,13.60
2023-05-20T17:15:54.677Z,14.23
2023-05-20T17:21:57.599Z,14.23
2023-05-20T17:27:59.953Z,10.73
2023-05-20T17:34:02.324Z,12.82
2023-05-20T17:40:08.353Z,11.63
2023-05-20T17:46:12.046Z,9.00
2023-05-20T17:52:17.745Z,12.18
2023-05-20T17:58:24.955Z,11.25
2023-05-20T18:04:28.592Z,17.87
2023-05-20T18:10:31.094Z,14.68
2023-05-20T18:16:33.860Z,14.60
2023-05-20T18:22:36.600Z,12.65
2023-05-20T18:28:39.061Z,10.48
2023-05-20T18:34:43.910Z,10.73
2023-05-20T18:40:46.659Z,10.82
2023-05-20T18:46:49.717Z,13.45
2023-05-20T18:52:52.338Z,12.35
2023-05-20T18:58:54.806Z,9.80
2023-05-20T19:04:57.170Z,9.63
2023-05-20T19:11:02.312Z,10.60
2023-05-20T19:17:07.127Z,12.00
2023-05-20T19:23:09.467Z,11.88
2023-05-20T19:29:11.907Z,11.60
2023-05-20T19:35:14.402Z,12.40
2023-05-20T19:41:16.798Z,11.93
2023-05-20T19:47:19.322Z,11.95
2023-05-20T19:53:21.590Z,12.07
2023-05-20T19:59:23.941Z,13.52
2023-05-20T20:05:26.574Z,14.32
2023-05-20T20:11:29.038Z,14.02
2023-05-20T20:17:33.797Z,14.80
2023-05-20T20:23:37.926Z,14.30
2023-05-20T20:29:41.349Z,14.63
2023-05-20T20:35:43.732Z,17.63
2023-05-20T20:41:50.079Z,16.55
2023-05-20T20:47:54.878Z,17.55
2023-05-20T20:53:57.324Z,19.35
2023-05-20T21:00:00.384Z,16.90
2023-05-20T21:06:03.371Z,18.17
2023-05-20T21:12:06.687Z,17.30
2023-05-20T21:18:09.261Z,16.50
2023-05-20T21:24:11.603Z,20.35
2023-05-20T21:30:15.854Z,21.73
2023-05-20T21:36:18.330Z,18.98
2023-05-20T21:42:21.070Z,17.38
2023-05-20T21:48:23.412Z,20.02
2023-05-20T21:54:25.882Z,17.52
2023-05-20T22:00:28.586Z,19.92
2023-05-20T22:06:35.081Z,20.50
2023-05-20T22:12:42.527Z,14.25
2023-05-20T22:18:47.750Z,16.55
2023-05-20T22:24:50.185Z,18.90
2023-05-20T22:30:52.746Z,16.15
2023-05-20T22:36:55.282Z,19.45
2023-05-20T22:42:57.718Z,18.60
2023-05-20T22:49:01.780Z,15.65
2023-05-20T22:55:04.389Z,16.40
2023-05-20T23:01:08.055Z,17.65
2023-05-20T23:07:14.717Z,22.33
2023-05-20T23:13:17.367Z,19.00
2023-05-20T23:19:19.789Z,59.97
2023-05-20T23:25:22.414Z,16.33
2023-05-20T23:31:26.898Z,18.50
2023-05-20T23:37:29.332Z,18.58
2023-05-20T23:43:31.708Z,19.52
2023-05-20T23:49:34.662Z,31.33
2023-05-20T23:55:37.645Z,15.93
